createdAt,value
2022-09-12T00:01:22.608Z,3.80
2022-09-12T00:06:23.282Z,2.42
2022-09-12T00:08:51.559Z,1.15
2022-09-12T00:11:19.385Z,3.25
2022-09-12T00:13:47.374Z,2.92
2022-09-12T00:16:17.482Z,3.22
2022-09-12T00:18:47.292Z,1.90
2022-09-12T00:21:17.404Z,1.48
2022-09-12T00:26:13.899Z,3.80
2022-09-12T00:28:42.200Z,0.28
2022-09-12T00:31:14.388Z,0.68
2022-09-12T00:33:42.436Z,1.92
2022-09-12T00:36:21.617Z,3.90
2022-09-12T00:38:51.308Z,2.20
2022-09-12T00:41:46.551Z,1.85
2022-09-12T00:44:13.968Z,1.25
2022-09-12T00:47:05.701Z,0.65
2022-09-12T00:49:43.895Z,2.92
2022-09-12T00:52:20.677Z,9.07
2022-09-12T00:55:05.496Z,3.33
2022-09-12T00:57:54.539Z,2.13
2022-09-12T01:00:25.432Z,1.13
2022-09-12T01:02:58.675Z,1.05
2022-09-12T01:05:30.018Z,2.08
2022-09-12T01:07:58.308Z,1.73
2022-09-12T01:10:26.065Z,1.85
2022-09-12T01:12:54.062Z,1.80
2022-09-12T01:15:22.456Z,2.88
2022-09-12T01:17:54.938Z,3.00
2022-09-12T01:21:02.751Z,0.85
2022-09-12T01:23:51.487Z,1.48
2022-09-12T01:29:12.555Z,2.17
2022-09-12T01:32:22.623Z,1.95
2022-09-12T01:35:04.940Z,6.00
2022-09-12T01:37:34.368Z,4.90
2022-09-12T01:40:01.867Z,12.13
2022-09-12T01:42:36.406Z,2.17
2022-09-12T01:45:08.044Z,6.90
2022-09-12T01:48:06.694Z,0.40
2022-09-12T01:50:40.502Z,0.55
2022-09-12T01:53:14.815Z,2.40
2022-09-12T01:55:51.490Z,2.17
2022-09-12T01:58:34.811Z,3.20
2022-09-12T02:01:31.737Z,3.55
2022-09-12T02:04:16.386Z,1.85
2022-09-12T02:07:07.364Z,2.83
2022-09-12T02:09:53.616Z,2.17
2022-09-12T02:12:26.949Z,1.10
2022-09-12T02:15:00.541Z,6.78
2022-09-12T02:17:30.365Z,2.45
2022-09-12T02:20:06.451Z,6.82
2022-09-12T02:22:37.735Z,1.83
2022-09-12T02:25:09.414Z,3.10
2022-09-12T02:27:47.240Z,2.70
2022-09-12T02:30:16.677Z,2.90
2022-09-12T02:33:06.110Z,1.67
2022-09-12T02:35:47.832Z,1.10
2022-09-12T02:38:45.495Z,2.20
2022-09-12T02:41:20.951Z,2.15
2022-09-12T02:43:50.151Z,1.48
2022-09-12T02:46:51.821Z,3.45
2022-09-12T02:49:20.091Z,1.85
2022-09-12T02:51:49.185Z,1.98
2022-09-12T02:54:18.811Z,2.47
2022-09-12T02:56:47.180Z,0.80
2022-09-12T02:59:21.623Z,3.08
2022-09-12T03:02:14.299Z,2.72
2022-09-12T03:05:07.433Z,2.17
2022-09-12T03:07:41.205Z,3.25
2022-09-12T03:10:33.806Z,4.10
2022-09-12T03:13:14.857Z,1.40
2022-09-12T03:15:45.795Z,2.38
2022-09-12T03:18:52.457Z,2.15
2022-09-12T03:21:56.807Z,6.28
2022-09-12T03:24:49.238Z,2.58
2022-09-12T03:27:24.521Z,3.50
2022-09-12T03:29:53.428Z,6.82
2022-09-12T03:32:23.350Z,4.13
2022-09-12T03:34:51.553Z,4.15
2022-09-12T03:37:19.394Z,9.80
2022-09-12T03:39:48.633Z,1.75
2022-09-12T03:42:16.387Z,4.72
2022-09-12T03:44:44.131Z,5.63
2022-09-12T03:47:11.987Z,2.13
2022-09-12T03:49:40.026Z,1.58
2022-09-12T03:52:07.745Z,7.35
2022-09-12T03:54:35.626Z,2.97
2022-09-12T03:57:03.436Z,4.82
2022-09-12T03:59:31.425Z,6.57
2022-09-12T04:01:59.222Z,7.22
2022-09-12T04:04:27.226Z,2.35
2022-09-12T04:06:55.254Z,3.83
2022-09-12T04:09:22.910Z,1.75
2022-09-12T04:11:50.926Z,2.13
2022-09-12T04:14:18.888Z,3.85
2022-09-12T04:16:47.145Z,1.65
2022-09-12T04:19:16.562Z,3.17
2022-09-12T04:21:44.373Z,7.38
2022-09-12T04:24:12.315Z,2.70
2022-09-12T04:26:40.407Z,9.50
2022-09-12T04:29:08.171Z,2.05
2022-09-12T04:31:35.779Z,3.53
2022-09-12T04:34:03.810Z,3.45
2022-09-12T04:36:32.051Z,1.75
2022-09-12T04:39:00.606Z,8.73
2022-09-12T04:41:36.511Z,3.47
2022-09-12T04:44:11.825Z,7.07
2022-09-12T04:46:42.707Z,2.33
2022-09-12T04:49:10.924Z,6.53
2022-09-12T04:51:40.219Z,9.23
2022-09-12T04:54:20.229Z,9.38
2022-09-12T04:56:52.590Z,11.40
2022-09-12T04:59:22.508Z,52.80
2022-09-12T05:01:50.507Z,32.08
2022-09-12T05:04:18.946Z,49.03
2022-09-12T05:06:47.633Z,20.80
2022-09-12T05:09:16.619Z,11.63
2022-09-12T05:14:34.158Z,16.00
2022-09-12T05:17:02.289Z,24.27
2022-09-12T05:19:31.039Z,26.15
2022-09-12T05:21:59.424Z,16.50
2022-09-12T05:24:28.420Z,13.27
2022-09-12T05:26:56.183Z,36.30
2022-09-12T05:29:25.235Z,13.50
2022-09-12T05:31:53.274Z,41.50
2022-09-12T05:34:21.698Z,31.92
2022-09-12T05:36:50.176Z,40.38
2022-09-12T05:39:18.683Z,24.50
2022-09-12T05:41:47.407Z,40.40
2022-09-12T05:44:15.455Z,28.08
2022-09-12T05:46:45.266Z,15.52
2022-09-12T05:49:14.700Z,41.15
2022-09-12T05:51:45.316Z,52.80
2022-09-12T05:54:15.209Z,38.13
2022-09-12T05:56:44.426Z,19.73
2022-09-12T05:59:32.635Z,42.33
2022-09-12T06:02:00.496Z,25.73
2022-09-12T06:04:28.806Z,34.05
2022-09-12T06:06:57.243Z,39.85
2022-09-12T06:09:25.831Z,34.75
2022-09-12T06:11:53.763Z,26.85
2022-09-12T06:14:22.580Z,40.75
2022-09-12T06:16:51.475Z,30.15
2022-09-12T06:19:21.787Z,50.55
2022-09-12T06:21:50.062Z,40.53
2022-09-12T06:24:18.984Z,22.17
2022-09-12T06:26:47.903Z,28.48
2022-09-12T06:29:19.435Z,35.88
2022-09-12T06:31:47.211Z,34.65
2022-09-12T06:34:17.321Z,54.55
2022-09-12T06:39:24.099Z,62.17
2022-09-12T06:41:52.742Z,70.10
2022-09-12T06:44:22.080Z,80.35
2022-09-12T06:46:50.303Z,60.40
2022-09-12T06:49:18.458Z,67.18
2022-09-12T06:51:46.019Z,54.33
2022-09-12T06:54:15.799Z,53.78
2022-09-12T06:56:43.271Z,36.13
2022-09-12T06:59:10.747Z,57.17
2022-09-12T07:01:38.620Z,50.08
2022-09-12T07:04:06.646Z,71.20
2022-09-12T07:06:40.683Z,60.50
2022-09-12T07:09:10.817Z,58.95
2022-09-12T07:14:10.956Z,60.67
2022-09-12T07:16:38.841Z,53.75
2022-09-12T07:19:08.093Z,61.17
2022-09-12T07:21:40.640Z,67.75
2022-09-12T07:24:10.391Z,78.72
2022-09-12T07:26:38.490Z,45.25
2022-09-12T07:29:34.707Z,66.22
2022-09-12T07:31:55.984Z,91.15
2022-09-12T07:34:23.634Z,51.72
2022-09-12T07:36:51.259Z,80.95
2022-09-12T07:39:19.126Z,72.32
2022-09-12T07:41:47.010Z,93.20
2022-09-12T07:44:14.480Z,60.50
2022-09-12T07:46:41.767Z,78.82
2022-09-12T07:49:09.448Z,70.20
2022-09-12T07:51:37.445Z,73.07
2022-09-12T07:54:09.375Z,84.93
2022-09-12T07:56:39.382Z,71.50
2022-09-12T07:59:07.780Z,71.57
2022-09-12T08:01:35.580Z,77.43
2022-09-12T08:04:04.985Z,66.30
2022-09-12T08:06:36.532Z,111.60
2022-09-12T08:09:05.678Z,97.75
2022-09-12T08:11:33.038Z,92.93
2022-09-12T08:14:02.948Z,58.53
2022-09-12T08:16:32.183Z,60.72
2022-09-12T08:19:02.481Z,56.58
2022-09-12T08:21:31.817Z,51.22
2022-09-12T08:24:07.095Z,73.30
2022-09-12T08:26:34.978Z,60.40
2022-09-12T08:29:02.617Z,47.92
2022-09-12T08:31:36.482Z,80.45
2022-09-12T08:34:05.740Z,66.38
2022-09-12T08:36:33.760Z,57.28
2022-09-12T08:39:06.029Z,23.77
2022-09-12T08:41:36.399Z,28.58
2022-09-12T08:44:29.004Z,36.08
2022-09-12T08:47:40.919Z,38.20
2022-09-12T08:50:16.543Z,63.40
2022-09-12T08:53:03.101Z,43.50
2022-09-12T08:55:36.901Z,46.38
2022-09-12T08:58:28.777Z,40.97
2022-09-12T09:01:07.448Z,65.10
2022-09-12T09:03:53.425Z,68.47
2022-09-12T09:06:32.649Z,54.58
2022-09-12T09:09:39.612Z,47.55
2022-09-12T09:12:16.805Z,65.30
2022-09-12T09:15:01.190Z,47.00
2022-09-12T09:18:23.518Z,42.13
2022-09-12T09:21:00.363Z,74.32
2022-09-12T09:23:48.585Z,41.60
2022-09-12T09:26:26.718Z,47.00
2022-09-12T09:29:17.536Z,69.28
2022-09-12T09:31:52.315Z,46.42
2022-09-12T09:34:21.110Z,25.65
2022-09-12T09:37:20.004Z,91.57
2022-09-12T09:40:21.990Z,44.03
2022-09-12T09:43:16.236Z,40.30
2022-09-12T09:45:47.836Z,33.20
2022-09-12T09:48:35.077Z,36.40
2022-09-12T09:51:09.363Z,36.70
2022-09-12T09:53:46.780Z,59.20
2022-09-12T09:56:30.700Z,69.90
2022-09-12T09:58:59.017Z,25.23
2022-09-12T10:01:27.624Z,31.67
2022-09-12T10:03:56.354Z,51.53
2022-09-12T10:06:31.027Z,36.00
2022-09-12T10:09:28.191Z,76.28
2022-09-12T10:11:57.024Z,48.25
2022-09-12T10:14:40.720Z,44.17
2022-09-12T10:17:39.503Z,44.67
2022-09-12T10:20:29.461Z,29.73
2022-09-12T10:22:58.481Z,24.88
2022-09-12T10:25:27.306Z,43.95
2022-09-12T10:28:21.958Z,30.00
2022-09-12T10:30:57.326Z,39.30
2022-09-12T10:33:26.590Z,19.48
2022-09-12T10:35:55.223Z,41.20
2022-09-12T10:38:28.675Z,41.78
2022-09-12T10:41:01.413Z,37.55
2022-09-12T10:43:42.436Z,23.63
2022-09-12T10:46:18.218Z,44.95
2022-09-12T10:49:13.345Z,36.78
2022-09-12T10:51:40.894Z,42.67
2022-09-12T10:54:11.575Z,92.85
2022-09-12T10:57:15.646Z,51.45
2022-09-12T11:00:17.099Z,36.72
2022-09-12T11:02:59.558Z,44.63
2022-09-12T11:08:04.119Z,52.88
2022-09-12T11:10:51.709Z,24.13
2022-09-12T11:13:46.436Z,55.90
2022-09-12T11:19:15.711Z,45.72
2022-09-12T11:22:20.476Z,52.28
2022-09-12T11:25:15.886Z,29.63
2022-09-12T11:28:02.212Z,22.10
2022-09-12T11:30:47.058Z,72.53
2022-09-12T11:33:47.876Z,65.78
2022-09-12T11:36:29.737Z,51.72
2022-09-12T11:39:13.419Z,23.75
2022-09-12T11:41:58.167Z,39.95
2022-09-12T11:44:38.700Z,28.95
2022-09-12T11:47:12.924Z,35.13
2022-09-12T11:49:51.711Z,29.90
2022-09-12T11:52:29.896Z,39.70
2022-09-12T11:55:06.110Z,20.70
2022-09-12T11:57:51.807Z,37.90
2022-09-12T12:00:24.690Z,33.92
2022-09-12T12:03:03.485Z,18.92
2022-09-12T12:05:55.561Z,12.32
2022-09-12T12:08:24.713Z,24.15
2022-09-12T12:10:56.488Z,23.67
2022-09-12T12:13:43.334Z,43.88
2022-09-12T12:16:28.268Z,102.85
2022-09-12T12:19:01.144Z,23.02
2022-09-12T12:21:46.402Z,21.13
2022-09-12T12:24:18.419Z,20.88
2022-09-12T12:26:57.528Z,30.88
2022-09-12T12:29:44.169Z,15.25
2022-09-12T12:32:16.505Z,27.23
2022-09-12T12:34:47.815Z,23.15
2022-09-12T12:37:21.407Z,48.63
2022-09-12T12:39:50.150Z,17.70
2022-09-12T12:42:35.909Z,44.90
2022-09-12T12:45:09.454Z,16.63
2022-09-12T12:47:36.910Z,31.20
2022-09-12T12:50:23.594Z,18.65
2022-09-12T12:53:01.887Z,31.00
2022-09-12T12:55:36.084Z,27.40
2022-09-12T12:58:05.940Z,57.05
2022-09-12T13:00:40.229Z,25.67
2022-09-12T13:03:25.994Z,48.63
2022-09-12T13:06:01.232Z,23.00
2022-09-12T13:08:31.575Z,42.60
2022-09-12T13:11:03.272Z,14.40
2022-09-12T13:13:42.784Z,37.78
2022-09-12T13:16:12.634Z,22.23
2022-09-12T13:18:47.883Z,34.38
2022-09-12T13:21:18.463Z,30.80
2022-09-12T13:23:59.811Z,18.60
2022-09-12T13:26:27.385Z,39.50
2022-09-12T13:29:31.887Z,35.08
2022-09-12T13:32:02.200Z,32.47
2022-09-12T13:34:35.203Z,25.83
2022-09-12T13:37:10.695Z,38.08
2022-09-12T13:40:14.390Z,28.00
2022-09-12T13:42:48.635Z,13.27
2022-09-12T13:45:27.064Z,32.97
2022-09-12T13:48:00.948Z,33.00
2022-09-12T13:50:33.463Z,33.00
2022-09-12T13:53:07.489Z,21.92
2022-09-12T13:55:41.027Z,36.10
2022-09-12T13:58:20.527Z,11.15
2022-09-12T14:00:59.949Z,30.65
2022-09-12T14:03:48.865Z,9.57
2022-09-12T14:06:18.694Z,13.18
2022-09-12T14:08:48.434Z,26.25
2022-09-12T14:11:26.578Z,13.73
2022-09-12T14:13:55.871Z,18.92
2022-09-12T14:16:29.251Z,10.40
2022-09-12T14:18:57.540Z,11.52
2022-09-12T14:21:28.563Z,12.50
2022-09-12T14:23:57.527Z,13.07
2022-09-12T14:26:26.231Z,26.58
2022-09-12T14:28:54.101Z,18.05
2022-09-12T14:31:30.299Z,10.80
2022-09-12T14:36:50.587Z,17.52
2022-09-12T14:39:23.983Z,14.98
2022-09-12T14:42:00.349Z,23.15
2022-09-12T14:44:28.851Z,8.10
2022-09-12T14:47:16.226Z,3.08
2022-09-12T14:49:43.931Z,8.80
2022-09-12T14:52:32.442Z,9.02
2022-09-12T14:55:28.102Z,11.27
2022-09-12T14:58:16.978Z,23.83
2022-09-12T15:00:56.947Z,11.40
2022-09-12T15:03:32.919Z,14.07
2022-09-12T15:06:04.898Z,7.80
2022-09-12T15:08:32.864Z,5.13
2022-09-12T15:11:00.814Z,7.15
2022-09-12T15:13:30.256Z,3.45
2022-09-12T15:16:00.035Z,3.72
2022-09-12T15:18:29.898Z,4.82
2022-09-12T15:21:01.800Z,6.82
2022-09-12T15:23:41.893Z,6.13
2022-09-12T15:26:12.791Z,3.38
2022-09-12T15:28:40.246Z,9.80
2022-09-12T15:31:15.928Z,5.47
2022-09-12T15:33:44.626Z,13.75
2022-09-12T15:36:16.411Z,9.77
2022-09-12T15:38:44.214Z,11.85
2022-09-12T15:41:39.240Z,18.88
2022-09-12T15:44:08.181Z,6.85
2022-09-12T15:46:35.734Z,11.80
2022-09-12T15:49:03.169Z,6.78
2022-09-12T15:51:30.466Z,17.48
2022-09-12T15:53:57.998Z,7.32
2022-09-12T15:56:26.968Z,5.22
2022-09-12T15:58:59.288Z,5.43
2022-09-12T16:01:28.963Z,3.83
2022-09-12T16:03:56.770Z,2.15
2022-09-12T16:06:25.090Z,4.47
2022-09-12T16:08:52.896Z,7.07
2022-09-12T16:11:25.864Z,15.38
2022-09-12T16:13:54.100Z,12.65
2022-09-12T16:16:22.234Z,9.68
2022-09-12T16:18:50.205Z,3.40
2022-09-12T16:21:17.886Z,7.28
2022-09-12T16:23:46.462Z,3.35
2022-09-12T16:26:14.158Z,6.63
2022-09-12T16:28:41.513Z,4.40
2022-09-12T16:31:10.997Z,5.25
2022-09-12T16:33:38.947Z,1.52
2022-09-12T16:36:11.680Z,3.22
2022-09-12T16:38:46.933Z,3.70
2022-09-12T16:41:14.969Z,11.50
2022-09-12T16:43:43.091Z,3.30
2022-09-12T16:46:20.864Z,8.93
2022-09-12T16:48:52.472Z,4.47
2022-09-12T16:51:23.850Z,8.25
2022-09-12T16:53:51.604Z,1.33
2022-09-12T16:56:19.156Z,3.40
2022-09-12T16:58:46.924Z,5.45
2022-09-12T17:01:17.146Z,6.32
2022-09-12T17:03:44.945Z,5.40
2022-09-12T17:06:17.463Z,3.65
2022-09-12T17:08:47.343Z,11.85
2022-09-12T17:11:36.485Z,6.80
2022-09-12T17:14:06.930Z,2.03
2022-09-12T17:16:40.387Z,5.57
2022-09-12T17:19:08.693Z,12.05
2022-09-12T17:21:36.594Z,3.10
2022-09-12T17:24:03.809Z,4.97
2022-09-12T17:26:31.658Z,3.53
2022-09-12T17:28:58.831Z,2.92
2022-09-12T17:31:26.792Z,1.65
2022-09-12T17:33:58.706Z,1.80
2022-09-12T17:36:27.548Z,2.80
2022-09-12T17:38:55.061Z,3.00
2022-09-12T17:41:25.059Z,8.48
2022-09-12T17:43:57.546Z,3.90
2022-09-12T17:46:35.853Z,6.72
2022-09-12T17:49:08.358Z,2.53
2022-09-12T17:51:36.143Z,5.13
2022-09-12T17:54:10.145Z,2.92
2022-09-12T17:56:37.996Z,7.65
2022-09-12T17:59:06.984Z,3.20
2022-09-12T18:01:53.381Z,1.10
2022-09-12T18:04:21.191Z,1.83
2022-09-12T18:06:49.020Z,3.63
2022-09-12T18:09:22.145Z,2.85
2022-09-12T18:11:50.395Z,3.85
2022-09-12T18:14:18.353Z,2.30
2022-09-12T18:16:46.447Z,3.92
2022-09-12T18:19:14.830Z,2.53
2022-09-12T18:21:42.446Z,6.70
2022-09-12T18:24:10.577Z,1.33
2022-09-12T18:26:38.139Z,5.30
2022-09-12T18:29:05.943Z,1.75
2022-09-12T18:31:33.552Z,3.60
2022-09-12T18:34:01.444Z,2.35
2022-09-12T18:36:30.247Z,3.05
2022-09-12T18:39:00.486Z,2.78
2022-09-12T18:41:29.099Z,2.40
2022-09-12T18:44:00.863Z,3.58
2022-09-12T18:46:30.421Z,4.00
2022-09-12T18:48:58.436Z,1.58
2022-09-12T18:51:31.539Z,7.93
2022-09-12T18:54:08.755Z,3.53
2022-09-12T18:56:38.461Z,5.53
2022-09-12T18:59:07.334Z,2.35
2022-09-12T19:01:38.713Z,1.63
2022-09-12T19:04:07.755Z,1.63
2022-09-12T19:06:37.842Z,4.15
2022-09-12T19:11:39.336Z,3.53
2022-09-12T19:14:07.561Z,1.95
2022-09-12T19:16:36.014Z,1.55
2022-09-12T19:19:03.499Z,4.28
2022-09-12T19:21:32.965Z,2.83
2022-09-12T19:24:05.637Z,3.08
2022-09-12T19:26:34.030Z,2.63
2022-09-12T19:29:03.041Z,1.38
2022-09-12T19:31:30.758Z,1.70
2022-09-12T19:34:06.393Z,4.30
2022-09-12T19:36:45.475Z,4.53
2022-09-12T19:39:14.427Z,1.48
2022-09-12T19:41:42.612Z,2.95
2022-09-12T19:44:09.848Z,1.65
2022-09-12T19:46:37.586Z,7.15
2022-09-12T19:49:05.099Z,3.67
2022-09-12T19:51:32.890Z,3.67
2022-09-12T19:54:00.373Z,2.30
2022-09-12T19:56:27.953Z,3.90
2022-09-12T19:58:56.827Z,0.98
2022-09-12T20:01:28.658Z,3.53
2022-09-12T20:03:57.136Z,2.45
2022-09-12T20:06:25.018Z,3.67
2022-09-12T20:08:52.326Z,1.45
2022-09-12T20:11:21.132Z,4.05
2022-09-12T20:13:48.408Z,1.05
2022-09-12T20:16:22.106Z,7.63
2022-09-12T20:18:54.699Z,2.08
2022-09-12T20:21:31.446Z,7.80
2022-09-12T20:24:07.411Z,3.03
2022-09-12T20:26:35.002Z,4.40
2022-09-12T20:29:02.855Z,1.52
2022-09-12T20:31:31.191Z,2.80
2022-09-12T20:33:58.835Z,1.17
2022-09-12T20:36:26.240Z,9.65
2022-09-12T20:38:59.952Z,0.88
2022-09-12T20:41:35.986Z,4.95
2022-09-12T20:44:03.452Z,2.08
2022-09-12T20:46:31.141Z,3.08
2022-09-12T20:48:58.740Z,2.42
2022-09-12T20:51:26.961Z,3.88
2022-09-12T20:53:55.292Z,2.38
2022-09-12T20:56:23.888Z,7.68
2022-09-12T20:58:51.841Z,3.92
2022-09-12T21:01:23.640Z,5.95
2022-09-12T21:03:51.589Z,3.33
2022-09-12T21:06:19.641Z,2.55
2022-09-12T21:08:50.594Z,1.85
2022-09-12T21:11:19.830Z,5.55
2022-09-12T21:13:47.831Z,2.40
2022-09-12T21:16:18.741Z,6.47
2022-09-12T21:18:46.696Z,1.63
2022-09-12T21:21:15.371Z,5.20
2022-09-12T21:23:43.087Z,1.88
2022-09-12T21:26:10.719Z,3.17
2022-09-12T21:28:38.178Z,3.42
2022-09-12T21:31:05.742Z,1.73
2022-09-12T21:33:33.249Z,11.02
2022-09-12T21:36:05.796Z,1.35
2022-09-12T21:38:33.524Z,1.65
2022-09-12T21:41:11.299Z,3.60
2022-09-12T21:43:39.337Z,1.27
2022-09-12T21:46:07.300Z,1.27
2022-09-12T21:48:35.201Z,3.90
2022-09-12T21:51:03.002Z,9.90
2022-09-12T21:53:30.362Z,2.45
2022-09-12T21:56:02.978Z,2.95
2022-09-12T21:58:30.687Z,2.42
2022-09-12T22:00:58.214Z,2.40
2022-09-12T22:03:26.199Z,2.17
2022-09-12T22:06:01.809Z,2.67
2022-09-12T22:08:30.798Z,2.88
2022-09-12T22:11:00.890Z,1.38
2022-09-12T22:15:56.319Z,1.25
2022-09-12T22:18:24.584Z,0.82
2022-09-12T22:21:02.606Z,0.82
2022-09-12T22:23:48.860Z,2.78
2022-09-12T22:26:16.794Z,4.75
2022-09-12T22:28:44.388Z,1.50
2022-09-12T22:31:13.339Z,2.00
2022-09-12T22:33:41.342Z,1.92
2022-09-12T22:36:09.837Z,0.73
2022-09-12T22:38:37.407Z,1.80
2022-09-12T22:41:09.324Z,1.83
2022-09-12T22:43:37.001Z,6.28
2022-09-12T22:46:09.354Z,0.63
2022-09-12T22:48:37.883Z,2.17
2022-09-12T22:51:05.791Z,1.17
2022-09-12T22:53:33.188Z,2.58
2022-09-12T22:56:00.694Z,2.60
2022-09-12T22:58:28.038Z,2.25
2022-09-12T23:00:55.526Z,2.13
2022-09-12T23:03:23.227Z,1.15
2022-09-12T23:05:50.687Z,4.55
2022-09-12T23:08:19.394Z,6.10
2022-09-12T23:10:46.918Z,2.53
2022-09-12T23:13:14.351Z,1.75
2022-09-12T23:15:42.376Z,2.10
2022-09-12T23:18:10.484Z,1.17
2022-09-12T23:20:38.117Z,2.15
2022-09-12T23:23:05.603Z,1.63
2022-09-12T23:25:33.223Z,2.75
2022-09-12T23:28:00.678Z,2.67
2022-09-12T23:30:28.128Z,2.22
2022-09-12T23:32:56.612Z,2.10
2022-09-12T23:35:24.540Z,1.15
2022-09-12T23:37:52.347Z,1.02
2022-09-12T23:40:19.878Z,1.55
2022-09-12T23:42:47.339Z,2.13
2022-09-12T23:45:14.649Z,3.20
2022-09-12T23:47:42.089Z,1.48
2022-09-12T23:50:09.724Z,2.53
2022-09-12T23:52:37.484Z,2.17
2022-09-12T23:55:05.336Z,3.50
2022-09-12T23:57:32.949Z,1.63
